Time;durP1;ratioP1;P1;durP2;ratioP2;P2;SDS_P1;SDS_P2;PMS_P1;PMS_P2;Temp;Humidity;BMP_temperature;BMP_pressure;BME280_temperature;BME280_humidity;BME280_pressure;Samples;Min_cycle;Max_cycle;Signal;HPM_P1;HPM_P2
2022/10/26 00:01:06;;;;;;;25.65;6.60;;;;;;;13.13;83.00;97248.28;5026698;28;20562;-63
2022/10/26 00:03:34;;;;;;;19.40;6.32;;;;;;;13.11;82.97;97247.84;5026842;28;20130;-65
2022/10/26 00:06:10;;;;;;;24.52;6.85;;;;;;;13.00;83.10;97246.09;5026600;28;20131;-63
2022/10/26 00:08:37;;;;;;;19.17;6.05;;;;;;;12.91;84.06;97251.97;5025222;28;20587;-63
2022/10/26 00:11:05;;;;;;;19.83;6.45;;;;;;;12.92;83.71;97253.56;5026505;28;20077;-64
2022/10/26 00:13:33;;;;;;;18.27;6.72;;;;;;;12.98;83.79;97252.03;5026413;28;20579;-64
2022/10/26 00:15:59;;;;;;;23.17;6.78;;;;;;;12.88;83.27;97224.91;5026822;28;20513;-62
2022/10/26 00:18:31;;;;;;;18.13;6.72;;;;;;;13.01;83.82;97242.19;5026725;28;20152;-62
2022/10/26 00:21:05;;;;;;;22.17;6.22;;;;;;;13.04;83.53;97250.53;5026069;28;20097;-63
2022/10/26 00:23:32;;;;;;;18.38;5.72;;;;;;;12.65;82.99;97177.00;5026324;28;20212;-63
2022/10/26 00:25:58;;;;;;;21.17;7.07;;;;;;;13.02;82.61;97244.59;5026573;28;20140;-62
2022/10/26 00:28:25;;;;;;;18.55;6.97;;;;;;;13.01;82.89;97245.75;5026583;28;20129;-62
2022/10/26 00:30:52;;;;;;;20.70;6.03;;;;;;;12.90;84.22;97242.03;5026273;28;20084;-64
2022/10/26 00:33:19;;;;;;;19.02;6.22;;;;;;;13.00;83.88;97227.47;5026146;28;20516;-61
2022/10/26 00:35:55;;;;;;;22.88;7.35;;;;;;;12.84;85.64;97224.09;5024631;28;20049;-62
2022/10/26 00:38:21;;;;;;;20.45;6.25;;;;;;;12.78;85.97;97231.16;5025000;28;20594;-61
2022/10/26 00:40:48;;;;;;;16.05;6.13;;;;;;;12.92;85.15;97234.09;5026093;28;20053;-63
2022/10/26 00:43:38;;;;;;;22.83;7.13;;;;;;;12.81;85.50;97233.19;5024693;28;20115;-62
2022/10/26 00:46:12;;;;;;;31.92;10.52;;;;;;;12.77;84.64;97235.13;5026217;28;20049;-63
2022/10/26 00:48:43;;;;;;;23.35;7.65;;;;;;;12.74;84.44;97246.22;5026070;28;20586;-62
2022/10/26 00:51:23;;;;;;;21.10;7.75;;;;;;;12.28;83.64;97173.41;5026111;28;20081;-62
2022/10/26 00:53:52;;;;;;;22.83;7.82;;;;;;;12.69;82.86;97252.91;5025007;28;20121;-62
2022/10/26 00:56:19;;;;;;;28.60;7.88;;;;;;;12.55;83.67;97238.81;5024066;28;20536;-62
2022/10/26 00:58:46;;;;;;;24.73;7.78;;;;;;;12.26;84.98;97236.88;5025808;28;20073;-63
2022/10/26 01:01:13;;;;;;;20.73;7.10;;;;;;;12.24;85.54;97236.44;5025716;28;20140;-63
2022/10/26 01:03:40;;;;;;;25.27;8.75;;;;;;;12.15;86.46;97247.03;5025893;28;20847;-62
2022/10/26 01:06:08;;;;;;;18.95;7.47;;;;;;;12.07;86.94;97250.88;5025340;28;21258;-62
2022/10/26 01:08:35;;;;;;;25.48;8.18;;;;;;;12.17;86.66;97236.34;5025186;28;20049;-63
2022/10/26 01:11:03;;;;;;;23.90;8.25;;;;;;;12.07;87.43;97235.03;5024994;28;20085;-64
2022/10/26 01:13:34;;;;;;;27.25;8.30;;;;;;;11.66;88.00;97174.16;5025379;28;20053;-64
2022/10/26 01:16:47;;;;;;;20.83;7.80;;;;;;;11.83;88.28;97212.44;5025666;28;20053;-64
2022/10/26 01:19:20;;;;;;;21.75;8.27;;;;;;;12.10;88.09;97234.28;5002846;28;20081;-64
2022/10/26 01:21:49;;;;;;;16.50;7.57;;;;;;;12.06;87.28;97210.41;4986533;28;20081;-63
2022/10/26 01:24:40;;;;;;;24.63;8.45;;;;;;;12.16;86.76;97245.84;5015082;28;20328;-63
2022/10/26 01:27:32;;;;;;;25.13;8.45;;;;;;;12.11;86.92;97235.88;5026037;28;20096;-63
2022/10/26 01:30:18;;;;;;;19.27;7.30;;;;;;;12.08;87.17;97231.06;5025261;28;20059;-64
2022/10/26 01:33:09;;;;;;;16.42;6.75;;;;;;;12.15;86.32;97239.47;5018182;28;20110;-64
2022/10/26 01:35:51;;;;;;;26.75;8.98;;;;;;;12.01;86.67;97235.72;5023882;28;20057;-63
2022/10/26 01:38:30;;;;;;;33.25;11.40;;;;;;;11.99;87.56;97227.78;5040617;28;20127;-64
2022/10/26 01:41:04;;;;;;;24.52;10.02;;;;;;;12.01;88.26;97247.63;5025054;28;20135;-63
2022/10/26 01:43:35;;;;;;;21.35;9.77;;;;;;;12.02;88.61;97237.31;5025235;28;20141;-62
2022/10/26 01:46:06;;;;;;;23.98;9.43;;;;;;;11.49;88.91;97152.47;5025044;28;20084;-62
2022/10/26 01:48:35;;;;;;;25.15;8.48;;;;;;;11.84;88.36;97208.50;5024744;28;20081;-62
2022/10/26 01:51:03;;;;;;;28.35;9.60;;;;;;;12.12;88.77;97231.91;5024773;28;20500;-63
2022/10/26 01:53:30;;;;;;;17.60;8.50;;;;;;;11.88;89.59;97226.81;5024680;28;20053;-62
2022/10/26 01:55:58;;;;;;;25.45;9.23;;;;;;;12.23;89.91;97237.63;5024443;28;20123;-62
2022/10/26 01:58:31;;;;;;;16.30;7.00;;;;;;;12.27;89.73;97238.47;5024909;28;20084;-65
2022/10/26 02:01:12;;;;;;;21.27;7.17;;;;;;;11.93;89.60;97178.50;5024753;28;20278;-63
2022/10/26 02:04:16;;;;;;;18.33;6.72;;;;;;;11.80;86.49;97163.25;5024848;28;20374;-62
2022/10/26 02:07:01;;;;;;;20.42;7.45;;;;;;;12.19;85.64;97243.13;5014499;28;20060;-63
2022/10/26 02:09:37;;;;;;;23.27;8.35;;;;;;;12.01;86.51;97239.28;5024782;28;20340;-64
2022/10/26 02:12:19;;;;;;;24.08;8.30;;;;;;;11.86;88.10;97228.34;5024774;28;20139;-63
2022/10/26 02:14:50;;;;;;;26.10;8.63;;;;;;;11.88;88.76;97201.03;5023382;28;20057;-64
2022/10/26 02:17:27;;;;;;;22.02;8.73;;;;;;;12.09;89.18;97232.66;5039687;28;20137;-63
2022/10/26 02:20:21;;;;;;;20.25;8.07;;;;;;;12.09;88.39;97237.44;5023588;28;20054;-63
2022/10/26 02:22:50;;;;;;;37.58;11.85;;;;;;;11.82;89.24;97233.06;5024714;28;20080;-65
2022/10/26 02:25:22;;;;;;;26.30;8.60;;;;;;;11.68;88.37;97249.50;5024261;28;20085;-63
2022/10/26 02:27:54;;;;;;;19.85;9.35;;;;;;;10.87;88.08;97130.84;5023364;28;20136;-63
2022/10/26 02:30:21;;;;;;;30.35;8.63;;;;;;;11.36;87.32;97187.94;5023142;28;20144;-64
2022/10/26 02:32:52;;;;;;;22.50;7.85;;;;;;;11.62;87.05;97248.97;5024484;28;20241;-64
2022/10/26 02:35:24;;;;;;;20.30;8.48;;;;;;;11.49;87.81;97252.31;5024244;28;20579;-65
2022/10/26 02:37:53;;;;;;;22.35;8.55;;;;;;;11.38;88.25;97231.94;5039418;28;20111;-63
2022/10/26 02:40:24;;;;;;;34.75;11.43;;;;;;;11.38;88.38;97237.47;5024455;28;20168;-63
2022/10/26 02:42:52;;;;;;;33.88;11.77;;;;;;;10.38;89.38;97092.00;5023222;28;20154;-63
2022/10/26 02:45:33;;;;;;;30.98;9.95;;;;;;;11.37;90.56;97261.63;5022581;28;20081;-64
2022/10/26 02:48:00;;;;;;;27.33;9.10;;;;;;;11.35;91.32;97258.41;5023113;28;20050;-65
2022/10/26 02:50:36;;;;;;;21.73;7.68;;;;;;;11.47;93.55;97326.78;5024393;28;20054;-63
2022/10/26 02:53:18;;;;;;;25.88;8.35;;;;;;;11.12;93.53;97187.50;5024126;28;20487;-63
2022/10/26 02:55:48;;;;;;;25.33;11.50;;;;;;;11.61;93.08;97266.81;5022929;28;20089;-64
2022/10/26 02:58:40;;;;;;;33.67;15.05;;;;;;;11.15;92.71;97197.84;5024449;28;20081;-64
2022/10/26 03:01:07;;;;;;;28.90;11.25;;;;;;;11.68;92.38;97266.94;5024269;28;20085;-64
2022/10/26 03:03:34;;;;;;;24.73;8.55;;;;;;;11.49;93.34;97260.66;5022449;28;20215;-63
2022/10/26 03:06:00;;;;;;;24.52;8.63;;;;;;;11.63;93.63;97283.88;5024196;28;20049;-64
2022/10/26 03:08:27;;;;;;;23.15;8.20;;;;;;;11.15;94.08;97209.75;5023894;28;20093;-64
2022/10/26 03:10:58;;;;;;;25.92;8.80;;;;;;;11.56;94.33;97277.38;5024091;28;20153;-65
2022/10/26 03:13:25;;;;;;;21.90;8.25;;;;;;;11.63;93.64;97283.09;5023909;28;20053;-65
2022/10/26 03:15:55;;;;;;;21.58;7.93;;;;;;;11.68;92.72;97291.13;5023894;28;20141;-63
2022/10/26 03:18:22;;;;;;;22.17;8.90;;;;;;;11.70;92.44;97281.25;5026216;28;20520;-64
2022/10/26 03:20:48;;;;;;;23.10;9.40;;;;;;;11.55;92.47;97261.94;5027397;28;20061;-63
2022/10/26 03:23:15;;;;;;;19.73;8.98;;;;;;;11.59;94.47;97280.22;5026325;28;20085;-63
2022/10/26 03:25:42;;;;;;;24.13;9.18;;;;;;;10.90;96.35;97191.06;5027742;28;20311;-63
2022/10/26 03:28:08;;;;;;;23.63;9.20;;;;;;;11.35;95.45;97252.09;5027942;28;20157;-62
2022/10/26 03:30:35;;;;;;;24.55;7.60;;;;;;;10.87;92.38;97313.75;5026942;28;20145;-62
2022/10/26 03:33:02;;;;;;;24.35;8.32;;;;;;;10.18;92.36;97265.59;5026196;28;20075;-62
2022/10/26 03:35:28;;;;;;;21.63;8.40;;;;;;;10.57;95.20;97306.00;5027464;28;20136;-62
2022/10/26 03:37:55;;;;;;;22.15;9.18;;;;;;;10.70;99.32;97304.69;5026990;28;20491;-62
2022/10/26 03:40:22;;;;;;;23.92;8.68;;;;;;;10.08;99.74;97169.31;5027554;28;20057;-62
2022/10/26 03:42:48;;;;;;;22.88;9.02;;;;;;;10.92;100.00;97294.06;5027280;28;20085;-63
2022/10/26 03:45:15;;;;;;;29.48;8.48;;;;;;;10.64;99.82;97245.22;5027337;28;20499;-63
2022/10/26 03:47:47;;;;;;;31.05;8.48;;;;;;;10.84;98.90;97247.97;5025771;28;20089;-62
2022/10/26 03:50:16;;;;;;;23.15;8.02;;;;;;;11.08;99.07;97270.59;5027391;28;20076;-63
2022/10/26 03:52:43;;;;;;;23.73;8.07;;;;;;;11.35;98.32;97293.69;5026963;28;20603;-62
2022/10/26 03:55:09;;;;;;;25.27;9.02;;;;;;;10.55;96.46;97147.72;5026836;28;20045;-64
2022/10/26 03:57:41;;;;;;;24.05;9.27;;;;;;;11.39;96.04;97314.75;5026227;28;20896;-64
2022/10/26 04:00:16;;;;;;;22.73;8.70;;;;;;;11.24;95.57;97278.81;5025356;28;20049;-64
2022/10/26 04:02:48;;;;;;;28.63;11.05;;;;;;;11.26;95.17;97282.00;5026579;28;20587;-62
2022/10/26 04:05:15;;;;;;;27.25;10.60;;;;;;;11.50;93.93;97309.41;5025382;28;20049;-64
2022/10/26 04:07:42;;;;;;;26.83;10.95;;;;;;;11.35;94.11;97285.38;5026831;28;20060;-62
2022/10/26 04:10:09;;;;;;;30.92;9.90;;;;;;;11.16;95.30;97293.72;5025292;28;20057;-61
2022/10/26 04:12:39;;;;;;;24.15;8.80;;;;;;;11.26;95.46;97299.47;5026817;28;20056;-62
2022/10/26 04:15:06;;;;;;;30.73;8.88;;;;;;;11.09;95.77;97285.28;5026511;28;20057;-61
2022/10/26 04:17:33;;;;;;;19.15;7.57;;;;;;;11.23;95.69;97307.72;5026352;28;20127;-63
2022/10/26 04:19:59;;;;;;;22.95;8.43;;;;;;;11.05;98.23;97301.03;5026914;28;20089;-63
2022/10/26 04:22:26;;;;;;;20.85;8.00;;;;;;;10.81;97.93;97248.72;5025344;28;20486;-62
2022/10/26 04:24:53;;;;;;;24.20;9.75;;;;;;;11.15;96.77;97308.75;5026674;28;20538;-62
2022/10/26 04:27:20;;;;;;;21.55;8.65;;;;;;;11.01;96.77;97314.81;5026860;28;20124;-62
2022/10/26 04:29:46;;;;;;;24.38;9.73;;;;;;;11.12;94.89;97315.84;5024311;28;20133;-63
2022/10/26 04:32:13;;;;;;;23.02;7.93;;;;;;;11.06;94.35;97327.59;5024943;28;20059;-62
2022/10/26 04:34:39;;;;;;;18.42;8.20;;;;;;;10.78;94.51;97293.78;5026469;28;20072;-64
2022/10/26 04:37:06;;;;;;;29.75;8.65;;;;;;;11.04;94.86;97335.47;5025916;28;20061;-63
2022/10/26 04:39:33;;;;;;;26.25;8.02;;;;;;;10.77;94.74;97314.31;5026315;28;20445;-63
2022/10/26 04:41:59;;;;;;;24.73;9.60;;;;;;;10.99;94.87;97335.75;5026381;28;20144;-63
2022/10/26 04:44:26;;;;;;;83.53;15.20;;;;;;;11.08;94.20;97341.88;5026213;28;20088;-63
2022/10/26 04:46:52;;;;;;;30.33;10.07;;;;;;;10.98;94.69;97331.38;5026333;28;20107;-63
2022/10/26 04:49:19;;;;;;;18.63;9.25;;;;;;;11.02;96.32;97326.72;5025389;28;20068;-63
2022/10/26 04:51:45;;;;;;;29.27;9.98;;;;;;;8.72;95.05;96937.66;5025499;28;20133;-63
2022/10/26 04:54:12;;;;;;;31.10;9.45;;;;;;;11.27;95.31;97347.41;5025042;28;20586;-63
2022/10/26 04:56:39;;;;;;;27.45;10.82;;;;;;;11.01;96.50;97330.66;5023790;28;21140;-62
2022/10/26 04:59:05;;;;;;;33.50;10.70;;;;;;;11.18;95.61;97347.63;5026092;28;20053;-63
2022/10/26 05:01:32;;;;;;;24.38;10.07;;;;;;;11.30;94.54;97344.69;5026105;28;20555;-63
2022/10/26 05:03:59;;;;;;;19.48;9.60;;;;;;;11.17;95.32;97323.03;5025657;28;20053;-64
2022/10/26 05:06:25;;;;;;;31.33;9.40;;;;;;;11.38;94.76;97348.41;5025589;28;20051;-64
2022/10/26 05:08:52;;;;;;;24.27;8.68;;;;;;;11.04;94.94;97302.19;5025792;28;20081;-63
2022/10/26 05:11:19;;;;;;;24.83;7.25;;;;;;;11.45;95.90;97365.16;5025019;28;20119;-64
2022/10/26 05:13:46;;;;;;;31.08;10.55;;;;;;;11.58;94.19;97361.88;5023941;28;20542;-63
2022/10/26 05:16:14;;;;;;;29.17;13.23;;;;;;;11.48;94.77;97350.56;5025180;28;20162;-63
2022/10/26 05:18:40;;;;;;;23.58;10.73;;;;;;;11.46;95.61;97334.28;5025473;28;20103;-63
2022/10/26 05:21:07;;;;;;;30.52;11.93;;;;;;;11.63;95.39;97346.91;5040548;28;20160;-63
2022/10/26 05:23:34;;;;;;;26.10;11.75;;;;;;;9.63;94.48;97052.94;5025354;28;20051;-63
2022/10/26 05:26:00;;;;;;;41.22;14.27;;;;;;;11.72;92.25;97328.03;5025183;28;20127;-63
2022/10/26 05:28:27;;;;;;;30.90;12.00;;;;;;;12.04;92.04;97357.16;5025168;28;20049;-64
2022/10/26 05:30:53;;;;;;;33.00;12.07;;;;;;;12.16;91.25;97362.47;5025011;28;20127;-62
2022/10/26 05:33:20;;;;;;;25.02;11.52;;;;;;;12.27;91.12;97357.91;5024890;28;20103;-64
2022/10/26 05:35:47;;;;;;;30.25;13.27;;;;;;;12.41;90.46;97355.31;5039826;28;20516;-63
2022/10/26 05:38:16;;;;;;;34.22;12.40;;;;;;;12.20;88.87;97288.38;5025174;28;20124;-63
2022/10/26 05:40:53;;;;;;;19.33;8.88;;;;;;;12.89;87.66;97359.97;5023358;28;20050;-63
2022/10/26 05:43:22;;;;;;;20.02;7.90;;;;;;;13.02;87.02;97364.16;5024788;28;20516;-64
2022/10/26 05:45:49;;;;;;;18.88;7.70;;;;;;;13.10;85.79;97371.38;5024664;28;20504;-64
2022/10/26 05:48:16;;;;;;;26.95;8.57;;;;;;;13.25;83.54;97364.84;5025121;28;20053;-64
2022/10/26 05:50:43;;;;;;;29.17;9.20;;;;;;;13.19;83.35;97380.25;5023054;28;20409;-64
2022/10/26 05:53:10;;;;;;;26.83;9.57;;;;;;;13.38;83.17;97382.88;5024750;28;20080;-63
2022/10/26 05:55:37;;;;;;;23.92;8.45;;;;;;;12.90;82.56;97292.06;5020865;28;20124;-63
2022/10/26 05:58:09;;;;;;;25.48;9.55;;;;;;;13.42;82.48;97388.50;5023815;28;20137;-68
2022/10/26 06:00:48;;;;;;;32.00;9.75;;;;;;;13.39;82.26;97339.94;5015685;28;20284;-70
2022/10/26 06:03:27;;;;;;;77.18;12.02;;;;;;;13.94;80.40;97393.78;5022183;28;20141;-68
2022/10/26 06:05:56;;;;;;;40.45;8.95;;;;;;;13.25;79.38;97245.22;5022657;28;20134;-68
2022/10/26 06:08:26;;;;;;;23.92;8.23;;;;;;;12.89;79.13;97175.69;5023378;28;20160;-66
2022/10/26 06:10:54;;;;;;;35.70;15.05;;;;;;;14.41;78.33;97395.81;5022724;28;20068;-65
2022/10/26 06:13:21;;;;;;;17.08;8.13;;;;;;;14.19;78.85;97366.16;5023151;28;20492;-64
2022/10/26 06:16:09;;;;;;;16.17;5.55;;;;;;;14.73;77.78;97397.63;5024056;28;20072;-65
2022/10/26 06:18:50;;;;;;;13.93;6.68;;;;;;;14.50;77.45;97371.19;5024508;28;20088;-64
2022/10/26 06:21:31;;;;;;;20.75;7.32;;;;;;;14.98;77.25;97403.38;5024676;28;20081;-67
2022/10/26 06:24:01;;;;;;;17.67;7.57;;;;;;;15.20;76.43;97399.50;5023755;28;20072;-74
2022/10/26 06:26:43;;;;;;;17.20;8.23;;;;;;;15.01;75.44;97335.63;5024923;28;20115;-59
2022/10/26 06:29:48;;;;;;;32.80;8.00;;;;;;;15.69;74.36;97396.94;5023653;28;20136;-65
2022/10/26 06:32:16;;;;;;;18.33;8.40;;;;;;;15.86;74.06;97382.19;5024380;28;20100;-65
2022/10/26 06:34:47;;;;;;;17.55;9.20;;;;;;;15.97;72.60;97369.03;5024382;28;20137;-70
2022/10/26 06:37:15;;;;;;;21.35;8.35;;;;;;;16.37;71.43;97407.81;5022743;28;20144;-70
2022/10/26 06:39:47;;;;;;;12.00;5.78;;;;;;;16.29;70.69;97372.66;5023655;28;20092;-66
2022/10/26 06:42:19;;;;;;;12.88;5.80;;;;;;;16.75;69.26;97389.44;5024724;28;20144;-68
2022/10/26 06:44:46;;;;;;;17.02;6.22;;;;;;;17.03;68.66;97394.16;5024034;28;20123;-67
2022/10/26 06:47:37;;;;;;;21.52;7.40;;;;;;;16.95;66.40;97358.97;5024484;28;20477;-60
2022/10/26 06:50:23;;;;;;;21.33;6.93;;;;;;;16.87;66.09;97349.81;5010960;28;20506;-67
2022/10/26 06:53:20;;;;;;;20.83;7.40;;;;;;;17.41;67.56;97416.44;5026712;28;20585;-70
2022/10/26 06:55:49;;;;;;;16.92;8.00;;;;;;;16.56;67.04;97269.59;5024196;28;20073;-67
2022/10/26 06:58:21;;;;;;;14.88;7.03;;;;;;;17.09;67.12;97325.34;5027380;28;20567;-68
2022/10/26 07:00:50;;;;;;;17.67;6.72;;;;;;;17.66;66.53;97388.34;5027302;28;20136;-73
2022/10/26 07:03:17;;;;;;;15.88;5.55;;;;;;;17.62;65.91;97359.56;5026208;28;20527;-68
2022/10/26 07:05:44;;;;;;;25.60;7.00;;;;;;;17.58;64.69;97314.75;5027213;28;20061;-64
2022/10/26 07:08:11;;;;;;;14.43;5.65;;;;;;;18.22;63.87;97365.56;5026659;28;20115;-66
2022/10/26 07:10:38;;;;;;;19.65;7.00;;;;;;;18.78;63.13;97404.38;5027008;28;20076;-63
2022/10/26 07:13:05;;;;;;;12.07;6.28;;;;;;;18.78;61.39;97359.47;5024156;28;20148;-67
2022/10/26 07:15:33;;;;;;;11.20;5.57;;;;;;;18.51;58.19;97291.19;5039440;28;20057;-65
2022/10/26 07:18:04;;;;;;;10.18;4.60;;;;;;;19.40;56.01;97430.25;5029900;28;20128;-65
2022/10/26 07:20:36;;;;;;;11.50;5.68;;;;;;;19.67;55.07;97415.44;5011593;28;20128;-68
2022/10/26 07:23:05;;;;;;;15.02;4.90;;;;;;;19.85;56.01;97404.78;5021574;28;20049;-69
2022/10/26 07:25:33;;;;;;;9.88;4.45;;;;;;;17.92;54.92;97076.66;5023385;28;20073;-61
2022/10/26 07:28:00;;;;;;;10.38;3.80;;;;;;;19.81;53.85;97342.97;5022397;28;20548;-65
2022/10/26 07:30:28;;;;;;;9.75;3.45;;;;;;;20.39;51.24;97406.44;5022620;28;20064;-69
2022/10/26 07:33:03;;;;;;;10.23;3.80;;;;;;;20.23;51.70;97370.47;5022358;28;20081;-67
2022/10/26 07:35:31;;;;;;;6.43;4.32;;;;;;;20.61;49.83;97374.69;5023441;28;20061;-64
2022/10/26 07:37:58;;;;;;;8.00;4.20;;;;;;;20.81;49.06;97360.66;5022479;28;20049;-63
2022/10/26 07:40:25;;;;;;;15.88;3.47;;;;;;;21.02;48.96;97399.75;5029257;28;20549;-61
2022/10/26 07:42:55;;;;;;;7.93;3.10;;;;;;;21.05;49.03;97415.78;5024200;28;20050;-67
2022/10/26 07:45:23;;;;;;;3.35;2.38;;;;;;;20.70;46.81;97318.63;5024314;28;20083;-62
2022/10/26 07:47:49;;;;;;;5.22;2.10;;;;;;;21.32;45.38;97399.59;5022183;28;20495;-66
2022/10/26 07:50:16;;;;;;;4.43;2.22;;;;;;;21.49;45.34;97394.81;5025244;28;20092;-62
2022/10/26 07:52:43;;;;;;;4.47;2.38;;;;;;;21.05;45.21;97314.38;5023867;28;20081;-64
2022/10/26 07:55:11;;;;;;;3.08;1.98;;;;;;;21.13;44.71;97303.75;5022456;28;20142;-59
2022/10/26 07:57:38;;;;;;;5.00;2.47;;;;;;;21.63;44.24;97367.13;5018065;28;20061;-62
2022/10/26 08:00:07;;;;;;;5.18;2.40;;;;;;;21.79;43.85;97386.16;5026317;28;20103;-60
2022/10/26 08:02:34;;;;;;;5.20;2.63;;;;;;;21.10;43.27;97251.09;5015439;28;20145;-67
2022/10/26 08:05:01;;;;;;;3.22;1.95;;;;;;;21.85;42.33;97365.44;5005732;28;20053;-62
2022/10/26 08:07:28;;;;;;;4.40;2.65;;;;;;;21.61;42.41;97323.69;5010736;28;20132;-70
2022/10/26 08:09:54;;;;;;;2.20;2.00;;;;;;;21.50;42.28;97315.44;5001875;28;20879;-61
2022/10/26 08:12:21;;;;;;;1.98;1.80;;;;;;;21.66;41.48;97303.41;5021741;28;20053;-74
2022/10/26 08:14:48;;;;;;;3.47;2.22;;;;;;;22.32;41.43;97386.53;5016262;28;20506;-67
2022/10/26 08:17:15;;;;;;;11.75;3.03;;;;;;;21.42;42.00;97251.22;5021754;28;20053;-64
2022/10/26 08:19:41;;;;;;;5.15;1.75;;;;;;;22.21;41.14;97354.94;5038914;28;20107;-60
2022/10/26 08:22:08;;;;;;;6.05;2.55;;;;;;;22.48;40.71;97372.44;5022808;28;20125;-66
2022/10/26 08:24:35;;;;;;;3.85;1.95;;;;;;;22.68;40.04;97397.81;5024497;28;20049;-68
2022/10/26 08:27:02;;;;;;;5.47;1.95;;;;;;;22.19;40.26;97319.94;5024376;28;20049;-68
2022/10/26 08:29:28;;;;;;;4.03;2.00;;;;;;;20.72;39.94;97076.06;5024267;28;20281;-60
2022/10/26 08:31:55;;;;;;;5.78;2.30;;;;;;;22.13;39.40;97294.25;5024738;28;20045;-68
2022/10/26 08:34:22;;;;;;;4.40;2.20;;;;;;;22.26;39.58;97297.97;5026527;28;20512;-61
2022/10/26 08:36:49;;;;;;;8.00;2.75;;;;;;;22.93;39.76;97397.16;5025555;28;20147;-59
2022/10/26 08:39:16;;;;;;;2.15;1.50;;;;;;;22.70;38.74;97388.88;5025363;28;20055;-65
2022/10/26 08:41:46;;;;;;;5.00;2.20;;;;;;;22.48;38.81;97327.25;5023876;28;20490;-60
2022/10/26 08:44:29;;;;;;;6.47;1.80;;;;;;;22.93;38.76;97383.03;5023152;28;20073;-68
2022/10/26 08:47:17;;;;;;;5.50;2.45;;;;;;;23.01;38.63;97393.72;5026032;28;20103;-69
2022/10/26 08:50:00;;;;;;;2.17;1.60;;;;;;;22.29;38.07;97263.22;5025468;28;20111;-72
2022/10/26 08:52:51;;;;;;;2.47;1.80;;;;;;;23.19;38.28;97387.59;5026090;28;20061;-73
2022/10/26 08:55:21;;;;;;;9.20;2.38;;;;;;;22.29;38.63;97246.28;5024984;28;20115;-65
2022/10/26 08:57:48;;;;;;;6.10;2.60;;;;;;;22.64;38.19;97277.66;5024804;28;20049;-63
2022/10/26 09:00:24;;;;;;;3.13;1.88;;;;;;;23.29;38.06;97350.56;5025471;28;20049;-59
2022/10/26 09:02:52;;;;;;;1.95;1.73;;;;;;;23.07;37.70;97309.16;5025520;28;20057;-63
2022/10/26 09:05:41;;;;;;;2.28;1.90;;;;;;;23.18;37.80;97316.13;5025030;28;20099;-66
2022/10/26 09:08:26;;;;;;;3.22;2.03;;;;;;;23.67;37.48;97401.59;5025596;28;20045;-68
2022/10/26 09:11:11;;;;;;;1.95;1.75;;;;;;;23.90;37.58;97387.16;5024692;28;20088;-69
2022/10/26 09:14:12;;;;;;;5.18;1.83;;;;;;;23.92;37.01;97371.31;5025332;28;20145;-68
2022/10/26 09:16:44;;;;;;;4.30;2.05;;;;;;;24.29;36.78;97392.47;5017915;28;20053;-72
2022/10/26 09:19:48;;;;;;;2.80;2.25;;;;;;;24.44;35.98;97387.91;5016592;28;20662;-64
2022/10/26 09:22:34;;;;;;;2.67;1.83;;;;;;;24.37;36.30;97393.84;5040106;28;20491;-65
2022/10/26 09:25:15;;;;;;;2.10;1.90;;;;;;;24.39;35.86;97357.31;5039692;28;20092;-67
2022/10/26 09:27:45;;;;;;;3.25;2.60;;;;;;;24.74;35.68;97395.88;5022858;28;20084;-68
2022/10/26 09:30:17;;;;;;;3.28;2.40;;;;;;;24.69;34.82;97393.59;5024031;28;20054;-66
2022/10/26 09:32:58;;;;;;;8.38;2.20;;;;;;;23.98;35.10;97283.84;5024713;28;20093;-59
2022/10/26 09:35:30;;;;;;;2.40;2.20;;;;;;;24.48;35.26;97359.50;5005538;28;20119;-61
2022/10/26 09:38:05;;;;;;;3.53;2.10;;;;;;;24.74;34.99;97387.38;5016971;28;20428;-62
2022/10/26 09:40:41;;;;;;;2.08;1.98;;;;;;;24.73;35.25;97388.63;5024634;28;20424;-61
2022/10/26 09:43:17;;;;;;;5.05;2.38;;;;;;;24.24;35.11;97288.25;5025037;28;20111;-67
2022/10/26 09:45:46;;;;;;;4.97;2.22;;;;;;;24.88;34.46;97350.03;5022596;28;20107;-67
2022/10/26 09:48:39;;;;;;;6.18;3.15;;;;;;;24.92;34.76;97378.25;5022358;28;20080;-68
2022/10/26 09:51:06;;;;;;;3.63;2.80;;;;;;;23.78;34.42;97221.00;5019580;28;20054;-64
2022/10/26 09:53:33;;;;;;;2.58;2.00;;;;;;;24.96;34.88;97384.63;5003089;28;20495;-61
2022/10/26 09:56:04;;;;;;;2.83;2.10;;;;;;;25.07;34.84;97380.16;5004493;28;20085;-66
2022/10/26 09:58:58;;;;;;;6.38;1.90;;;;;;;24.45;34.25;97286.75;5005052;28;20149;-63
2022/10/26 10:01:33;;;;;;;3.72;2.15;;;;;;;25.11;34.07;97378.00;5004816;28;20436;-67
2022/10/26 10:04:12;;;;;;;1.88;1.73;;;;;;;25.17;34.06;97387.50;5003603;28;20120;-66
2022/10/26 10:06:39;;;;;;;2.60;2.40;;;;;;;25.38;33.83;97380.31;5005025;28;20082;-66
2022/10/26 10:09:14;;;;;;;3.50;1.80;;;;;;;25.51;33.94;97383.09;5014838;28;20156;-63
2022/10/26 10:11:53;;;;;;;3.17;1.88;;;;;;;25.68;33.83;97375.97;5024093;28;20085;-65
2022/10/26 10:14:23;;;;;;;2.20;2.00;;;;;;;25.69;32.85;97391.75;5021621;28;20539;-65
2022/10/26 10:16:59;;;;;;;2.25;2.10;;;;;;;25.53;33.15;97332.34;5022822;28;20057;-63
2022/10/26 10:19:28;;;;;;;4.32;2.67;;;;;;;25.52;33.31;97325.06;5023098;28;20107;-66
2022/10/26 10:22:00;;;;;;;5.07;2.70;;;;;;;24.63;33.40;97202.72;5024533;28;20156;-66
2022/10/26 10:24:30;;;;;;;2.30;1.85;;;;;;;25.71;32.69;97355.97;5031667;28;20140;-65
2022/10/26 10:26:59;;;;;;;5.97;2.30;;;;;;;25.63;32.95;97325.47;5024118;28;20119;-60
2022/10/26 10:29:32;;;;;;;3.20;2.00;;;;;;;25.80;32.56;97409.19;5028208;28;20081;-62
2022/10/26 10:32:01;;;;;;;1.88;1.77;;;;;;;25.61;32.72;97362.81;5026862;28;20053;-65
2022/10/26 10:34:32;;;;;;;2.72;1.80;;;;;;;25.52;33.12;97350.63;5026329;28;20054;-63
2022/10/26 10:37:00;;;;;;;2.40;1.88;;;;;;;25.37;32.95;97324.81;5027033;28;20057;-61
2022/10/26 10:39:34;;;;;;;3.50;2.00;;;;;;;25.40;32.95;97340.13;5042958;28;20331;-64
2022/10/26 10:42:03;;;;;;;2.40;2.20;;;;;;;25.43;33.46;97344.88;5027718;28;20500;-64
2022/10/26 10:44:32;;;;;;;2.88;2.20;;;;;;;25.46;32.88;97341.13;5026917;28;20080;-63
2022/10/26 10:47:03;;;;;;;2.60;1.70;;;;;;;25.66;32.79;97341.56;5026854;28;20164;-63
2022/10/26 10:49:30;;;;;;;3.10;2.20;;;;;;;24.17;33.61;97237.50;5026439;28;20056;-62
2022/10/26 10:51:58;;;;;;;2.22;2.00;;;;;;;25.06;33.34;97316.19;5024647;28;20125;-59
2022/10/26 10:54:32;;;;;;;2.22;2.13;;;;;;;24.77;33.90;97343.94;5026773;28;20535;-59
2022/10/26 10:57:16;;;;;;;4.57;3.53;;;;;;;24.59;34.08;97304.06;5015536;28;20088;-61
2022/10/26 11:00:11;;;;;;;4.18;2.22;;;;;;;22.76;33.54;96954.94;5025405;28;20045;-63
2022/10/26 11:03:25;;;;;;;6.05;3.53;;;;;;;25.39;33.37;97333.66;5027074;28;20816;-61
2022/10/26 11:06:14;;;;;;;3.45;2.10;;;;;;;25.60;33.22;97326.41;5005049;28;20049;-62
2022/10/26 11:08:44;;;;;;;2.28;1.85;;;;;;;25.71;32.96;97327.59;5024662;28;20586;-65
2022/10/26 11:11:16;;;;;;;2.22;2.08;;;;;;;25.03;32.74;97237.75;5025803;28;20103;-65
2022/10/26 11:14:04;;;;;;;2.97;2.10;;;;;;;25.56;32.56;97286.03;5026336;28;20140;-66
2022/10/26 11:16:37;;;;;;;5.30;2.20;;;;;;;25.96;32.27;97326.63;5027635;28;20045;-64
2022/10/26 11:19:15;;;;;;;3.15;2.70;;;;;;;26.00;32.52;97345.16;5027284;28;20095;-62
2022/10/26 11:21:44;;;;;;;3.00;2.20;;;;;;;26.19;32.16;97326.91;5026119;28;20104;-65
2022/10/26 11:24:20;;;;;;;4.78;2.22;;;;;;;26.20;32.31;97319.19;5027315;28;20065;-63
2022/10/26 11:27:01;;;;;;;7.35;2.80;;;;;;;26.26;32.30;97317.31;5025571;28;20049;-64
2022/10/26 11:29:37;;;;;;;7.57;3.28;;;;;;;26.24;32.18;97319.84;5026033;28;20930;-64
2022/10/26 11:32:38;;;;;;;3.63;2.00;;;;;;;26.32;31.77;97321.16;5027596;28;20573;-63
2022/10/26 11:35:37;;;;;;;4.07;2.53;;;;;;;26.37;31.26;97318.47;5025356;28;20057;-66
2022/10/26 11:38:16;;;;;;;2.85;1.73;;;;;;;26.08;31.35;97278.28;5008944;28;20139;-60
2022/10/26 11:41:14;;;;;;;2.15;1.67;;;;;;;26.25;31.47;97315.75;5026534;28;20049;-60
2022/10/26 11:43:45;;;;;;;3.47;3.05;;;;;;;26.18;31.53;97322.50;5024149;28;20061;-62
2022/10/26 11:46:36;;;;;;;3.60;2.70;;;;;;;25.82;32.37;97327.16;5026987;28;20081;-62
2022/10/26 11:49:27;;;;;;;7.07;3.42;;;;;;;25.55;32.49;97275.91;5027159;28;20140;-63
2022/10/26 11:52:16;;;;;;;5.88;2.85;;;;;;;25.96;32.35;97320.94;5027143;28;20273;-63